Warrensville, NC (28693)

9:27 AM EDT on September 02, 2015 (GMT -0400)
Cameron Ridge Road | | Change Station
CLOSE
Current Station
Personal Weather Station
Location: Warrensville, NC
Elevation: 3337 ft
Nearby Weather Stations

Elev 3337 ft 36.45 °N, 81.53 °W | Updated 2 minutes ago

Clear
Clear
66.8 °F
Feels Like 66.8 °F
N
0.0
Wind Variable Wind from WNW
Gusts 0.0 mph

Today
High -- | Low -- °F
--% Chance of Precip.
Yesterday
High -- | Low -- °F
Precip. -- in
6:58 AM 7:53 PM
Waning Gibbous, 80% visible
Pressure 30.25 in
Visibility 10.0 miles
Clouds Scattered Clouds 7500 ft
Dew Point 64 °F
Humidity 91%
Rainfall 0.00 in
Snow Depth Not available.
UV 2 out of 12
Pollen 9.00 out of 12
Air Quality Not available.
Flu Activity Not available.
METAR KGEV 021315Z AUTO 00000KT 10SM SCT075 20/18 A3025 RMK AO2 T02010179
Pressure 30.25 in
Visibility 10.0 miles
Clouds Scattered Clouds 7500 ft
Dew Point 64 °F
Humidity 91%
Rainfall 0.00 in
Snow Depth Not available.
UV 2 out of 12
Pollen 9.00 out of 12
Air Quality Not available.
Flu Activity Not available.
METAR KGEV 021315Z AUTO 00000KT 10SM SCT075 20/18 A3025 RMK AO2 T02010179

10-Day Weather Forecast

×

Almanac

Astronomy

Sep. 02, 2015 Rise Set
Actual Time
Civil Twilight
Nautical Twilight
Astronomical Twilight
Moon
Length of Visible Light
Length of Day
Tomorrow will be .
, % of the Moon is Illuminated

Today's Extremes

State Highs State Lows

Community

WunderPhotos

Upload Photos

1,851,749 photos uploaded!

WunderBlogs® & News

Nearby

Air Quality

  Air Quality AQ Index Pollutant
Not available.

Snow Depth

Station Depth Elevation

Earthquake Activity

City Distance Mag. Time & Date
Minimum magnitude displayed is 2.5.

Coastal Water Temperatures

Place Temperature

Stations

Nearby Weather Stations

Station Location Temp. Windchill Dew Point Humidity Wind Precip. Elev Updated Type